Fernando de Noronha, Brazil
Current Conditions -  °F | °C
As of 8:00 PM on Wednesday 22 Oct 2014 (Local Time) from SBFN Reporting Station
Scattered Clouds Scattered Clouds  
Wind Chill: 79°   Ceiling: Unl
Heat Index: 82°   Visibility: 6mi
Dew Point: 73°   Wind: 10mph
Humidity: 83%   Direction: 110°ESE
Pressure: 29.97"   Gusts: NA
Location:  3.86°S, 32.44°W
Report Text: SBFN 222200Z 11009KT 9999 SCT015 26/23 Q1015
Loading
Personal Weather Stations






























Interactive Weather Map
Tropical Storm Tracking
New forecast layout! Learn more

10-Day Weather Forecast

Advertisements
Track Severe Weather on mobile